| time (UTC) | temp F | wind direction | speed MPH | gust MPH | rain 1hr in | rain 24hr in | rain mn in | humidity % | barometer mb |
| 20260507172003 | 78 | 202 | 7.0 | 12.0 | 0.00 | 0.00 | 0.00 | 73 | 1016.5 |
| 20260507171514 | 78 | 221 | 7.0 | 15.0 | 0.00 | 0.00 | 0.00 | 73 | 1016.5 |
| 20260507171004 | 78 | 223 | 8.0 | 15.0 | 0.00 | 0.00 | 0.00 | 73 | 1016.4 |
| 20260507170508 | 78 | 214 | 4.0 | 11.0 | 0.00 | 0.00 | 0.00 | 74 | 1016.3 |
| 20260507170016 | 78 | 240 | 6.0 | 14.0 | 0.00 | 0.00 | 0.00 | 74 | 1016.4 |
| 20260507165507 | 78 | 198 | 8.0 | 14.0 | 0.00 | 0.00 | 0.00 | 74 | 1016.3 |
| 20260507165005 | 78 | 250 | 3.0 | 10.0 | 0.00 | 0.00 | 0.00 | 75 | 1016.4 |
| 20260507164521 | 78 | 278 | 5.0 | 13.0 | 0.00 | 0.00 | 0.00 | 75 | 1016.5 |
| 20260507164004 | 78 | 220 | 5.0 | 13.0 | 0.00 | 0.00 | 0.00 | 75 | 1016.4 |
| 20260507163505 | 78 | 238 | 8.0 | 13.0 | 0.00 | 0.00 | 0.00 | 76 | 1016.3 |
| 20260507163003 | 77 | 210 | 7.0 | 11.0 | 0.00 | 0.00 | 0.00 | 76 | 1016.4 |
| 20260507162505 | 77 | 208 | 5.0 | 12.0 | 0.00 | 0.00 | 0.00 | 77 | 1016.5 |
| 20260507162004 | 77 | 265 | 7.0 | 12.0 | 0.00 | 0.00 | 0.00 | 76 | 1016.6 |
| 20260507161508 | 76 | 59 | 5.0 | 12.0 | 0.00 | 0.00 | 0.00 | 77 | 1016.7 |
| 20260507161011 | 76 | 250 | 7.0 | 12.0 | 0.00 | 0.00 | 0.00 | 79 | 1017.0 |
| 20260507160505 | 76 | 303 | 7.0 | 14.0 | 0.00 | 0.00 | 0.00 | 78 | 1017.2 |
| 20260507160014 | 75 | 312 | 4.0 | 14.0 | 0.00 | 0.00 | 0.00 | 78 | 1017.3 |
| 20260507155514 | 75 | 275 | 8.0 | 15.0 | 0.00 | 0.00 | 0.00 | 78 | 1017.4 |
| 20260507155006 | 76 | 295 | 7.0 | 15.0 | 0.00 | 0.00 | 0.00 | 77 | 1017.5 |
| 20260507154518 | 76 | 295 | 8.0 | 14.0 | 0.00 | 0.00 | 0.00 | 78 | 1017.6 |
| 20260507154011 | 76 | 311 | 8.0 | 14.0 | 0.00 | 0.00 | 0.00 | 77 | 1017.6 |
| 20260507153502 | 76 | 320 | 6.0 | 14.0 | 0.00 | 0.00 | 0.00 | 76 | 1017.6 |
| 20260507153005 | 76 | 309 | 7.0 | 15.0 | 0.00 | 0.00 | 0.00 | 76 | 1017.6 |
| 20260507152503 | 75 | 288 | 10.0 | 16.0 | 0.00 | 0.00 | 0.00 | 76 | 1017.7 |
| 20260507152001 | 75 | 291 | 8.0 | 16.0 | 0.00 | 0.00 | 0.00 | 78 | 1017.7 |
| 20260507151509 | 76 | 310 | 9.0 | 16.0 | 0.00 | 0.00 | 0.00 | 77 | 1017.6 |
| 20260507151003 | 76 | 306 | 6.0 | 15.0 | 0.00 | 0.00 | 0.00 | 79 | 1017.6 |
| 20260507150505 | 76 | 317 | 10.0 | 15.0 | 0.00 | 0.00 | 0.00 | 78 | 1017.5 |
| 20260507150021 | 76 | 302 | 7.0 | 12.0 | 0.00 | 0.00 | 0.00 | 78 | 1017.3 |
| 20260507145510 | 76 | 329 | 7.0 | 12.0 | 0.00 | 0.00 | 0.00 | 79 | 1017.2 |
| 20260507145007 | 76 | 328 | 6.0 | 11.0 | 0.00 | 0.00 | 0.00 | 79 | 1017.1 |
| 20260507144514 | 76 | 326 | 6.0 | 13.0 | 0.00 | 0.00 | 0.00 | 78 | 1017.0 |
| 20260507144006 | 76 | 294 | 9.0 | 12.0 | 0.00 | 0.00 | 0.00 | 77 | 1016.7 |
| 20260507143510 | 76 | 306 | 5.0 | 9.0 | 0.00 | 0.00 | 0.00 | 76 | 1016.6 |
| 20260507143021 | 76 | 290 | 5.0 | 8.0 | 0.00 | 0.00 | 0.00 | 77 | 1016.3 |
| 20260507142509 | 76 | 227 | 3.0 | 8.0 | 0.00 | 0.00 | 0.00 | 77 | 1016.1 |
| 20260507142007 | 75 | 311 | 3.0 | 7.0 | 0.00 | 0.00 | 0.00 | 78 | 1016.2 |
| 20260507141504 | 75 | 262 | 4.0 | 7.0 | 0.00 | 0.00 | 0.00 | 78 | 1016.1 |
| 20260507141004 | 75 | 275 | 2.0 | 5.0 | 0.00 | 0.00 | 0.00 | 78 | 1015.9 |
| 20260507140505 | 75 | 219 | 3.0 | 7.0 | 0.00 | 0.00 | 0.00 | 78 | 1015.9 |
| 20260507140010 | 75 | 285 | 5.0 | 7.0 | 0.00 | 0.00 | 0.00 | 79 | 1016.1 |
| 20260507135506 | 74 | 276 | 2.0 | 5.0 | 0.00 | 0.00 | 0.00 | 80 | 1016.1 |
| 20260507135003 | 74 | 322 | 2.0 | 5.0 | 0.00 | 0.00 | 0.00 | 81 | 1016.2 |
| 20260507134514 | 74 | 337 | 4.0 | 5.0 | 0.00 | 0.00 | 0.00 | 81 | 1016.3 |
| 20260507134006 | 73 | 253 | 2.0 | 4.0 | 0.00 | 0.00 | 0.00 | 83 | 1016.2 |
| 20260507133507 | 73 | 253 | 2.0 | 7.0 | 0.00 | 0.00 | 0.00 | 85 | 1016.2 |
| 20260507133021 | 72 | 267 | 3.0 | 7.0 | 0.00 | 0.00 | 0.00 | 85 | 1016.2 |
| 20260507132512 | 72 | 255 | 4.0 | 7.0 | 0.00 | 0.00 | 0.00 | 86 | 1016.2 |
| 20260507132008 | 71 | 294 | 2.0 | 5.0 | 0.00 | 0.00 | 0.00 | 88 | 1016.3 |
| 20260507131521 | 71 | 210 | 3.0 | 5.0 | 0.00 | 0.00 | 0.00 | 88 | 1016.2 |
| 20260507131004 | 71 | 255 | 3.0 | 5.0 | 0.00 | 0.00 | 0.00 | 89 | 1016.1 |
| 20260507130510 | 70 | 223 | 4.0 | 8.0 | 0.00 | 0.00 | 0.00 | 89 | 1016.0 |
| 20260507130006 | 70 | 264 | 2.0 | 8.0 | 0.00 | 0.00 | 0.00 | 89 | 1016.2 |
| 20260507125505 | 70 | 220 | 4.0 | 8.0 | 0.00 | 0.00 | 0.00 | 89 | 1016.1 |
| 20260507125008 | 70 | 195 | 4.0 | 6.0 | 0.00 | 0.00 | 0.00 | 89 | 1016.0 |
| 20260507124512 | 70 | 177 | 3.0 | 5.0 | 0.00 | 0.00 | 0.00 | 90 | 1015.8 |
| 20260507124006 | 69 | 216 | 2.0 | 4.0 | 0.00 | 0.00 | 0.00 | 90 | 1015.9 |
| 20260507123506 | 69 | 253 | 1.0 | 4.0 | 0.00 | 0.00 | 0.00 | 90 | 1016.1 |
| 20260507123036 | 69 | 236 | 2.0 | 4.0 | 0.00 | 0.00 | 0.00 | 90 | 1016.1 |
| 20260507122504 | 69 | 198 | 1.0 | 4.0 | 0.00 | 0.00 | 0.00 | 90 | 1016.0 |
| 20260507122004 | 69 | 190 | 2.0 | 2.0 | 0.00 | 0.00 | 0.00 | 90 | 1016.0 |
| 20260507121504 | 69 | 359 | 0.0 | 2.0 | 0.00 | 0.00 | 0.00 | 90 | 1016.1 |
| 20260507121003 | 68 | 359 | 1.0 | 2.0 | 0.00 | 0.00 | 0.00 | 90 | 1016.0 |
| 20260507120509 | 68 | 347 | 0.0 | 2.0 | 0.00 | 0.00 | 0.00 | 90 | 1016.1 |
| 20260507120007 | 68 | 347 | 1.0 | 2.0 | 0.00 | 0.00 | 0.00 | 90 | 1016.2 |
| 20260507115505 | 68 | 355 | 1.0 | 2.0 | 0.00 | 0.00 | 0.00 | 90 | 1016.4 |
| 20260507115004 | 68 | 355 | 0.0 | 3.0 | 0.00 | 0.00 | 0.00 | 90 | 1016.4 |
| 20260507114513 | 68 | 356 | 1.0 | 4.0 | 0.00 | 0.00 | 0.00 | 90 | 1016.4 |
| 20260507114002 | 68 | 356 | 2.0 | 4.0 | 0.00 | 0.00 | 0.00 | 90 | 1016.4 |
| 20260507113501 | 68 | 359 | 2.0 | 5.0 | 0.00 | 0.00 | 0.00 | 90 | 1016.5 |
| 20260507113008 | 68 | 359 | 3.0 | 5.0 | 0.00 | 0.00 | 0.00 | 89 | 1016.6 |
| 20260507112503 | 68 | 359 | 3.0 | 5.0 | 0.00 | 0.00 | 0.00 | 89 | 1016.4 |
| 20260507112003 | 68 | 347 | 4.0 | 5.0 | 0.00 | 0.00 | 0.00 | 89 | 1016.4 |
| 20260507111504 | 68 | 347 | 3.0 | 4.0 | 0.00 | 0.00 | 0.00 | 88 | 1016.4 |
| 20260507111004 | 68 | 359 | 3.0 | 5.0 | 0.00 | 0.00 | 0.00 | 87 | 1016.4 |
| 20260507104511 | 69 | 259 | 0.0 | 2.0 | 0.00 | 0.00 | 0.00 | 85 | 1015.8 |
| 20260507104009 | 69 | 259 | 0.0 | 2.0 | 0.00 | 0.00 | 0.00 | 85 | 1015.5 |
| 20260507103504 | 69 | 259 | 1.0 | 4.0 | 0.00 | 0.00 | 0.00 | 85 | 1015.6 |
| 20260507103015 | 69 | 248 | 1.0 | 3.0 | 0.00 | 0.00 | 0.00 | 85 | 1015.4 |
| 20260507102502 | 69 | 212 | 1.0 | 3.0 | 0.00 | 0.00 | 0.00 | 84 | 1015.4 |
| 20260507102003 | 69 | 286 | 1.0 | 4.0 | 0.00 | 0.00 | 0.00 | 84 | 1015.4 |
| 20260507101504 | 69 | 240 | 2.0 | 4.0 | 0.00 | 0.00 | 0.00 | 84 | 1015.3 |
| 20260507101002 | 69 | 256 | 1.0 | 6.0 | 0.00 | 0.00 | 0.00 | 84 | 1015.5 |
| 20260507100502 | 69 | 238 | 1.0 | 6.0 | 0.00 | 0.00 | 0.00 | 84 | 1015.5 |
| 20260507100008 | 69 | 205 | 3.0 | 6.0 | 0.00 | 0.00 | 0.00 | 84 | 1015.3 |
| 20260507095504 | 69 | 205 | 3.0 | 6.0 | 0.00 | 0.00 | 0.00 | 84 | 1015.3 |
| 20260507095004 | 70 | 203 | 4.0 | 8.0 | 0.00 | 0.00 | 0.00 | 84 | 1015.3 |
| 20260507094512 | 70 | 203 | 4.0 | 10.0 | 0.00 | 0.00 | 0.00 | 84 | 1015.2 |
| 20260507094008 | 70 | 189 | 6.0 | 10.0 | 0.00 | 0.00 | 0.00 | 83 | 1015.2 |
| 20260507093506 | 70 | 203 | 6.0 | 8.0 | 0.00 | 0.00 | 0.00 | 83 | 1015.1 |
| 20260507093013 | 70 | 185 | 5.0 | 7.0 | 0.00 | 0.00 | 0.00 | 83 | 1015.1 |
| 20260507092505 | 70 | 189 | 5.0 | 7.0 | 0.00 | 0.00 | 0.00 | 83 | 1015.1 |
| 20260507092004 | 70 | 206 | 4.0 | 10.0 | 0.00 | 0.00 | 0.00 | 83 | 1015.1 |
| 20260507091504 | 70 | 196 | 5.0 | 10.0 | 0.00 | 0.00 | 0.00 | 83 | 1015.1 |
| 20260507091003 | 70 | 208 | 4.0 | 8.0 | 0.00 | 0.00 | 0.00 | 84 | 1015.0 |
| 20260507090503 | 70 | 208 | 6.0 | 12.0 | 0.00 | 0.00 | 0.00 | 84 | 1015.0 |
| 20260507090010 | 70 | 184 | 6.0 | 12.0 | 0.00 | 0.00 | 0.00 | 84 | 1014.8 |
| 20260507085503 | 70 | 203 | 6.0 | 9.0 | 0.00 | 0.00 | 0.00 | 84 | 1014.7 |
| 20260507085004 | 70 | 191 | 6.0 | 8.0 | 0.00 | 0.00 | 0.00 | 84 | 1014.5 |
| 20260507084508 | 70 | 207 | 5.0 | 9.0 | 0.00 | 0.00 | 0.00 | 84 | 1014.4 |
| 20260507084003 | 70 | 206 | 4.0 | 9.0 | 0.00 | 0.00 | 0.00 | 84 | 1014.2 |
| 20260507083504 | 70 | 204 | 5.0 | 9.0 | 0.00 | 0.00 | 0.00 | 84 | 1014.0 |
| 20260507083016 | 70 | 202 | 6.0 | 9.0 | 0.00 | 0.00 | 0.00 | 83 | 1013.9 |
| 20260507082504 | 70 | 207 | 6.0 | 9.0 | 0.00 | 0.00 | 0.00 | 83 | 1014.0 |
| 20260507082007 | 70 | 224 | 5.0 | 9.0 | 0.00 | 0.00 | 0.00 | 83 | 1014.0 |
| 20260507081517 | 70 | 217 | 5.0 | 9.0 | 0.00 | 0.00 | 0.00 | 83 | 1013.9 |
| 20260507081005 | 70 | 188 | 4.0 | 11.0 | 0.00 | 0.00 | 0.00 | 82 | 1013.8 |
| 20260507080508 | 71 | 217 | 5.0 | 11.0 | 0.00 | 0.00 | 0.00 | 82 | 1013.9 |
| 20260507080005 | 71 | 219 | 6.0 | 8.0 | 0.00 | 0.00 | 0.00 | 82 | 1013.9 |
| 20260507075503 | 71 | 202 | 5.0 | 7.0 | 0.00 | 0.00 | 0.00 | 82 | 1014.0 |
| 20260507075003 | 71 | 191 | 5.0 | 8.0 | 0.00 | 0.00 | 0.00 | 82 | 1014.1 |
| 20260507074508 | 71 | 221 | 4.0 | 8.0 | 0.00 | 0.00 | 0.00 | 82 | 1014.1 |
| 20260507074003 | 71 | 206 | 5.0 | 8.0 | 0.00 | 0.00 | 0.00 | 82 | 1014.2 |
| 20260507073504 | 71 | 208 | 5.0 | 8.0 | 0.00 | 0.00 | 0.00 | 81 | 1014.1 |
| 20260507073011 | 71 | 189 | 6.0 | 10.0 | 0.00 | 0.00 | 0.00 | 81 | 1014.1 |
| 20260507072505 | 71 | 174 | 6.0 | 10.0 | 0.00 | 0.00 | 0.00 | 81 | 1014.2 |
| 20260507072006 | 71 | 193 | 5.0 | 7.0 | 0.00 | 0.00 | 0.00 | 80 | 1014.3 |
| 20260507071519 | 71 | 201 | 4.0 | 6.0 | 0.00 | 0.00 | 0.00 | 80 | 1014.5 |
| 20260507071005 | 71 | 191 | 3.0 | 5.0 | 0.00 | 0.00 | 0.00 | 80 | 1014.6 |
| 20260507070507 | 71 | 197 | 4.0 | 5.0 | 0.00 | 0.00 | 0.00 | 80 | 1014.7 |
| 20260507070028 | 71 | 201 | 3.0 | 5.0 | 0.00 | 0.00 | 0.00 | 80 | 1014.8 |
| 20260507065508 | 71 | 190 | 2.0 | 4.0 | 0.00 | 0.00 | 0.00 | 79 | 1014.8 |
| 20260507065013 | 72 | 203 | 2.0 | 4.0 | 0.00 | 0.00 | 0.00 | 79 | 1015.0 |
| 20260507064507 | 72 | 206 | 2.0 | 4.0 | 0.00 | 0.00 | 0.00 | 79 | 1014.8 |
| 20260507064003 | 72 | 205 | 3.0 | 5.0 | 0.00 | 0.00 | 0.00 | 79 | 1014.9 |
| 20260507063503 | 72 | 198 | 2.0 | 5.0 | 0.00 | 0.00 | 0.00 | 79 | 1014.9 |
| 20260507063011 | 72 | 176 | 2.0 | 3.0 | 0.00 | 0.00 | 0.00 | 79 | 1015.1 |
| 20260507062504 | 72 | 215 | 2.0 | 4.0 | 0.00 | 0.00 | 0.00 | 78 | 1015.1 |
| 20260507062004 | 72 | 210 | 3.0 | 4.0 | 0.00 | 0.00 | 0.00 | 78 | 1015.2 |
| 20260507061516 | 72 | 252 | 2.0 | 5.0 | 0.00 | 0.00 | 0.00 | 78 | 1015.3 |
| 20260507061011 | 72 | 226 | 3.0 | 6.0 | 0.00 | 0.00 | 0.00 | 78 | 1015.3 |
| 20260507060503 | 73 | 203 | 4.0 | 6.0 | 0.00 | 0.00 | 0.00 | 77 | 1015.3 |
| 20260507060007 | 73 | 189 | 4.0 | 5.0 | 0.00 | 0.00 | 0.00 | 77 | 1015.4 |
| 20260507055504 | 73 | 184 | 2.0 | 4.0 | 0.00 | 0.00 | 0.00 | 77 | 1015.3 |
| 20260507055003 | 73 | 162 | 2.0 | 4.0 | 0.00 | 0.00 | 0.00 | 77 | 1015.5 |
| 20260507054505 | 73 | 181 | 2.0 | 3.0 | 0.00 | 0.00 | 0.00 | 76 | 1015.6 |
| 20260507054004 | 73 | 184 | 2.0 | 3.0 | 0.00 | 0.00 | 0.00 | 76 | 1015.6 |
| 20260507053504 | 74 | 190 | 2.0 | 4.0 | 0.00 | 0.00 | 0.00 | 76 | 1015.5 |
| 20260507053010 | 74 | 173 | 2.0 | 4.0 | 0.00 | 0.00 | 0.00 | 76 | 1015.6 |
| 20260507052504 | 74 | 167 | 2.0 | 4.0 | 0.00 | 0.00 | 0.00 | 76 | 1015.5 |
| 20260507052003 | 74 | 186 | 3.0 | 4.0 | 0.00 | 0.00 | 0.00 | 75 | 1015.8 |
| 20260507051503 | 74 | 190 | 3.0 | 5.0 | 0.00 | 0.00 | 0.00 | 75 | 1015.9 |
| 20260507051001 | 74 | 188 | 3.0 | 6.0 | 0.00 | 0.00 | 0.00 | 75 | 1015.9 |
| 20260507050502 | 74 | 205 | 4.0 | 6.0 | 0.00 | 0.00 | 0.00 | 75 | 1015.9 |
| 20260507045503 | 74 | 185 | 5.0 | 8.0 | 0.00 | 0.00 | 0.00 | 74 | 1015.9 |
| 20260507045003 | 74 | 162 | 3.0 | 4.0 | 0.00 | 0.00 | 0.00 | 74 | 1015.9 |
| 20260507044506 | 74 | 181 | 3.0 | 4.0 | 0.00 | 0.00 | 0.00 | 74 | 1016.0 |
| 20260507044003 | 74 | 161 | 2.0 | 5.0 | 0.00 | 0.00 | 0.00 | 74 | 1016.0 |
| 20260507043503 | 75 | 176 | 4.0 | 5.0 | 0.00 | 0.00 | 0.00 | 74 | 1016.1 |
| 20260507043006 | 75 | 200 | 4.0 | 7.0 | 0.00 | 0.00 | 0.00 | 74 | 1016.0 |
| 20260507042504 | 74 | 172 | 4.0 | 7.0 | 0.00 | 0.00 | 0.00 | 74 | 1015.8 |
| 20260507042003 | 75 | 186 | 6.0 | 7.0 | 0.00 | 0.00 | 0.00 | 74 | 1016.0 |
| 20260507041513 | 75 | 186 | 4.0 | 7.0 | 0.00 | 0.00 | 0.00 | 74 | 1016.0 |
| 20260507041005 | 74 | 158 | 4.0 | 7.0 | 0.00 | 0.00 | 0.00 | 74 | 1015.9 |
| 20260507040502 | 74 | 196 | 5.0 | 8.0 | 0.00 | 0.00 | 0.00 | 75 | 1016.0 |
| 20260507040004 | 74 | 205 | 4.0 | 7.0 | 0.00 | 0.00 | 0.00 | 75 | 1016.0 |
| 20260507035503 | 74 | 190 | 4.0 | 7.0 | 0.00 | 0.00 | 0.00 | 76 | 1015.9 |
| 20260507035003 | 74 | 167 | 3.0 | 5.0 | 0.00 | 0.00 | 0.00 | 77 | 1016.0 |
| 20260507034502 | 74 | 164 | 2.0 | 4.0 | 0.00 | 0.00 | 0.00 | 77 | 1016.2 |
| 20260507034003 | 74 | 205 | 2.0 | 4.0 | 0.00 | 0.00 | 0.00 | 77 | 1016.4 |
| 20260507033504 | 74 | 190 | 2.0 | 3.0 | 0.00 | 0.00 | 0.00 | 77 | 1016.3 |
| 20260507033006 | 74 | 153 | 2.0 | 3.0 | 0.00 | 0.00 | 0.00 | 77 | 1016.3 |
| 20260507032508 | 74 | 165 | 2.0 | 3.0 | 0.00 | 0.00 | 0.00 | 78 | 1016.3 |
| 20260507032005 | 74 | 175 | 1.0 | 2.0 | 0.00 | 0.00 | 0.00 | 78 | 1016.2 |
| 20260507031507 | 74 | 175 | 1.0 | 2.0 | 0.00 | 0.00 | 0.00 | 78 | 1016.0 |
| 20260507031009 | 74 | 175 | 1.0 | 2.0 | 0.00 | 0.00 | 0.00 | 78 | 1016.3 |
| 20260507030509 | 74 | 174 | 0.0 | 2.0 | 0.00 | 0.00 | 0.00 | 77 | 1016.3 |
| 20260507030021 | 75 | 166 | 1.0 | 3.0 | 0.00 | 0.00 | 0.00 | 77 | 1016.4 |
| 20260507025507 | 75 | 170 | 1.0 | 4.0 | 0.00 | 0.00 | 0.00 | 77 | 1016.5 |
| 20260507025003 | 75 | 157 | 2.0 | 4.0 | 0.00 | 0.00 | 0.00 | 76 | 1016.1 |
| 20260507024507 | 75 | 163 | 3.0 | 3.0 | 0.00 | 0.00 | 0.00 | 77 | 1016.1 |
| 20260507024005 | 75 | 174 | 2.0 | 3.0 | 0.00 | 0.00 | 0.00 | 77 | 1016.1 |
| 20260507023503 | 75 | 180 | 2.0 | 3.0 | 0.00 | 0.00 | 0.00 | 77 | 1016.1 |
| 20260507023004 | 75 | 169 | 2.0 | 3.0 | 0.00 | 0.00 | 0.00 | 77 | 1015.8 |
| 20260507022504 | 75 | 203 | 0.0 | 2.0 | 0.00 | 0.00 | 0.00 | 76 | 1016.0 |
| 20260507022005 | 76 | 131 | 0.0 | 2.0 | 0.00 | 0.00 | 0.00 | 75 | 1016.1 |
| 20260507021006 | 77 | 105 | 1.0 | 2.0 | 0.00 | 0.00 | 0.00 | 73 | 1015.9 |
| 20260507020504 | 77 | 142 | 0.0 | 2.0 | 0.00 | 0.00 | 0.00 | 73 | 1015.9 |
| 20260507020014 | 78 | 142 | 0.0 | 3.0 | 0.00 | 0.00 | 0.00 | 72 | 1015.8 |
| 20260507015504 | 78 | 150 | 1.0 | 3.0 | 0.00 | 0.00 | 0.00 | 72 | 1015.8 |
| 20260507015009 | 78 | 210 | 1.0 | 5.0 | 0.00 | 0.00 | 0.00 | 70 | 1015.8 |
| 20260507014522 | 78 | 160 | 2.0 | 5.0 | 0.00 | 0.00 | 0.00 | 70 | 1015.7 |
| 20260507014004 | 78 | 141 | 3.0 | 5.0 | 0.00 | 0.00 | 0.00 | 70 | 1015.7 |
| 20260507013503 | 78 | 178 | 3.0 | 5.0 | 0.00 | 0.00 | 0.00 | 71 | 1015.8 |
| 20260507013004 | 78 | 212 | 1.0 | 3.0 | 0.00 | 0.00 | 0.00 | 72 | 1015.9 |
| 20260507012505 | 78 | 158 | 0.0 | 3.0 | 0.00 | 0.00 | 0.00 | 72 | 1015.9 |
| 20260507012004 | 78 | 104 | 0.0 | 2.0 | 0.00 | 0.00 | 0.00 | 71 | 1016.0 |
| 20260507011006 | 79 | 165 | 1.0 | 2.0 | 0.00 | 0.00 | 0.00 | 70 | 1015.8 |
| 20260507010505 | 79 | 143 | 0.0 | 2.0 | 0.00 | 0.00 | 0.00 | 70 | 1015.6 |
| 20260507005508 | 80 | 164 | 2.0 | 3.0 | 0.00 | 0.00 | 0.00 | 68 | 1015.7 |
| 20260507005007 | 80 | 159 | 2.0 | 3.0 | 0.00 | 0.00 | 0.00 | 67 | 1015.6 |
| 20260507002504 | 83 | 167 | 1.0 | 2.0 | 0.00 | 0.00 | 0.00 | 60 | 1015.6 |
| 20260507002004 | 84 | 110 | 2.0 | 2.0 | 0.00 | 0.00 | 0.00 | 58 | 1015.6 |
| 20260507001511 | 85 | 256 | 0.0 | 2.0 | 0.00 | 0.00 | 0.00 | 56 | 1015.4 |
| 20260507001006 | 85 | 255 | 0.0 | 1.0 | 0.00 | 0.00 | 0.00 | 55 | 1015.2 |
| 20260507000508 | 86 | 298 | 0.0 | 3.0 | 0.00 | 0.00 | 0.00 | 53 | 1014.9 |
| 20260507000010 | 86 | 298 | 0.0 | 4.0 | 0.00 | 0.00 | 0.00 | 53 | 1015.0 |
| 20260506235504 | 86 | 311 | 1.0 | 4.0 | 0.00 | 0.00 | 0.00 | 52 | 1015.0 |
| 20260506235007 | 86 | 301 | 1.0 | 4.0 | 0.00 | 0.00 | 0.00 | 52 | 1015.0 |
| 20260506234517 | 87 | 298 | 3.0 | 4.0 | 0.00 | 0.00 | 0.00 | 52 | 1014.9 |
| 20260506234005 | 87 | 309 | 3.0 | 7.0 | 0.00 | 0.00 | 0.00 | 52 | 1014.7 |
| 20260506233507 | 87 | 309 | 4.0 | 6.0 | 0.00 | 0.00 | 0.00 | 51 | 1014.9 |
| 20260506233021 | 87 | 309 | 2.0 | 6.0 | 0.00 | 0.00 | 0.00 | 51 | 1015.1 |
| 20260506232003 | 88 | 292 | 6.0 | 10.0 | 0.00 | 0.00 | 0.00 | 50 | 1015.0 |
| 20260506231528 | 88 | 303 | 7.0 | 10.0 | 0.00 | 0.00 | 0.00 | 50 | 1014.9 |
| 20260506231004 | 89 | 284 | 5.0 | 8.0 | 0.00 | 0.00 | 0.00 | 49 | 1014.7 |
| 20260506230504 | 89 | 238 | 5.0 | 8.0 | 0.00 | 0.00 | 0.00 | 49 | 1014.7 |
| 20260506230005 | 89 | 298 | 3.0 | 9.0 | 0.00 | 0.00 | 0.00 | 49 | 1014.6 |
| 20260506225502 | 89 | 301 | 3.0 | 11.0 | 0.00 | 0.00 | 0.00 | 48 | 1014.8 |
| 20260506225003 | 89 | 314 | 6.0 | 11.0 | 0.00 | 0.00 | 0.00 | 48 | 1014.8 |
| 20260506224517 | 89 | 328 | 6.0 | 11.0 | 0.00 | 0.00 | 0.00 | 47 | 1014.8 |
| 20260506224001 | 90 | 297 | 7.0 | 12.0 | 0.00 | 0.00 | 0.00 | 46 | 1014.9 |
| 20260506223503 | 90 | 228 | 5.0 | 12.0 | 0.00 | 0.00 | 0.00 | 45 | 1015.0 |
| 20260506220503 | 91 | 229 | 7.0 | 13.0 | 0.00 | 0.00 | 0.00 | 43 | 1015.1 |
| 20260506220008 | 91 | 227 | 6.0 | 13.0 | 0.00 | 0.00 | 0.00 | 42 | 1015.1 |
| 20260506215506 | 90 | 232 | 5.0 | 14.0 | 0.00 | 0.00 | 0.00 | 43 | 1015.0 |
| 20260506215005 | 90 | 194 | 5.0 | 14.0 | 0.00 | 0.00 | 0.00 | 44 | 1014.9 |
| 20260506214503 | 90 | 228 | 7.0 | 12.0 | 0.00 | 0.00 | 0.00 | 42 | 1014.9 |
| 20260506214003 | 91 | 311 | 3.0 | 10.0 | 0.00 | 0.00 | 0.00 | 43 | 1014.9 |
| 20260506213003 | 92 | 199 | 7.0 | 11.0 | 0.00 | 0.00 | 0.00 | 39 | 1014.9 |
| 20260506212013 | 91 | 275 | 7.0 | 15.0 | 0.00 | 0.00 | 0.00 | 40 | 1014.8 |
| 20260506211504 | 92 | 234 | 10.0 | 15.0 | 0.00 | 0.00 | 0.00 | 38 | 1014.9 |
| 20260506211009 | 92 | 198 | 4.0 | 11.0 | 0.00 | 0.00 | 0.00 | 40 | 1014.9 |
| 20260506210033 | 92 | 217 | 7.0 | 14.0 | 0.00 | 0.00 | 0.00 | 39 | 1015.0 |
| 20260506205004 | 92 | 190 | 8.0 | 13.0 | 0.00 | 0.00 | 0.00 | 39 | 1015.0 |
| 20260506204511 | 92 | 207 | 8.0 | 13.0 | 0.00 | 0.00 | 0.00 | 41 | 1015.0 |
| 20260506204005 | 91 | 166 | 4.0 | 8.0 | 0.00 | 0.00 | 0.00 | 41 | 1015.0 |
| 20260506203005 | 91 | 308 | 1.0 | 9.0 | 0.00 | 0.00 | 0.00 | 41 | 1015.1 |
| 20260506202503 | 91 | 197 | 4.0 | 13.0 | 0.00 | 0.00 | 0.00 | 42 | 1015.2 |
| 20260506202001 | 91 | 259 | 8.0 | 13.0 | 0.00 | 0.00 | 0.00 | 41 | 1015.2 |
| 20260506195503 | 91 | 173 | 5.0 | 10.0 | 0.00 | 0.00 | 0.00 | 42 | 1015.6 |
| 20260506194526 | 90 | 266 | 7.0 | 12.0 | 0.00 | 0.00 | 0.00 | 40 | 1015.7 |
| 20260506193510 | 90 | 287 | 7.0 | 11.0 | 0.00 | 0.00 | 0.00 | 42 | 1015.7 |
| 20260506192004 | 90 | 255 | 8.0 | 14.0 | 0.00 | 0.00 | 0.00 | 45 | 1016.0 |
| 20260506191010 | 89 | 188 | 4.0 | 16.0 | 0.00 | 0.00 | 0.00 | 47 | 1016.3 |
| 20260506184526 | 89 | 209 | 4.0 | 8.0 | 0.00 | 0.00 | 0.00 | 47 | 1016.5 |
| 20260506183507 | 89 | 243 | 3.0 | 9.0 | 0.00 | 0.00 | 0.00 | 48 | 1016.6 |
| 20260506183025 | 89 | 186 | 5.0 | 12.0 | 0.00 | 0.00 | 0.00 | 48 | 1016.6 |
| 20260506182510 | 89 | 197 | 7.0 | 15.0 | 0.00 | 0.00 | 0.00 | 50 | 1016.6 |
| 20260506182008 | 89 | 245 | 6.0 | 15.0 | 0.00 | 0.00 | 0.00 | 47 | 1016.8 |
| 20260506180504 | 88 | 203 | 10.0 | 16.0 | 0.00 | 0.00 | 0.00 | 47 | 1017.0 |
| 20260506180009 | 88 | 207 | 5.0 | 9.0 | 0.00 | 0.00 | 0.00 | 46 | 1017.0 |
| 20260506175004 | 87 | 205 | 3.0 | 17.0 | 0.00 | 0.00 | 0.00 | 48 | 1017.2 |
| 20260506174005 | 87 | 161 | 3.0 | 12.0 | 0.00 | 0.00 | 0.00 | 50 | 1017.2 |
| 20260506173509 | 87 | 184 | 3.0 | 12.0 | 0.00 | 0.00 | 0.00 | 49 | 1017.3 |